sensor_id;sensor_type;location;lat;lon;timestamp;P1;P2;P0
79537;PMS5003;68989;52.032;5.152;2023-05-13T00:01:21;25;24;
79537;PMS5003;68989;52.032;5.152;2023-05-13T00:03:47;25;23;
79537;PMS5003;68989;52.032;5.152;2023-05-13T00:06:14;23;23;
79537;PMS5003;68989;52.032;5.152;2023-05-13T00:08:41;25;25;
79537;PMS5003;68989;52.032;5.152;2023-05-13T00:11:09;25;25;
79537;PMS5003;68989;52.032;5.152;2023-05-13T00:13:36;21;21;
79537;PMS5003;68989;52.032;5.152;2023-05-13T00:16:03;22;22;
79537;PMS5003;68989;52.032;5.152;2023-05-13T00:18:30;26;23;
79537;PMS5003;68989;52.032;5.152;2023-05-13T00:20:57;22;21;
79537;PMS5003;68989;52.032;5.152;2023-05-13T00:23:24;21;21;
79537;PMS5003;68989;52.032;5.152;2023-05-13T00:25:51;24;22;
79537;PMS5003;68989;52.032;5.152;2023-05-13T00:28:19;25;25;
79537;PMS5003;68989;52.032;5.152;2023-05-13T00:30:46;19;19;
79537;PMS5003;68989;52.032;5.152;2023-05-13T00:33:13;24;23;
79537;PMS5003;68989;52.032;5.152;2023-05-13T00:35:40;20;19;
79537;PMS5003;68989;52.032;5.152;2023-05-13T00:38:07;23;22;
79537;PMS5003;68989;52.032;5.152;2023-05-13T00:40:36;20;20;
79537;PMS5003;68989;52.032;5.152;2023-05-13T00:43:04;19;19;
79537;PMS5003;68989;52.032;5.152;2023-05-13T00:45:32;22;22;
79537;PMS5003;68989;52.032;5.152;2023-05-13T00:47:59;21;20;
79537;PMS5003;68989;52.032;5.152;2023-05-13T00:50:26;19;19;
79537;PMS5003;68989;52.032;5.152;2023-05-13T00:52:53;21;21;
79537;PMS5003;68989;52.032;5.152;2023-05-13T00:55:24;21;20;
79537;PMS5003;68989;52.032;5.152;2023-05-13T00:57:50;23;20;
79537;PMS5003;68989;52.032;5.152;2023-05-13T01:01:32;23;22;
79537;PMS5003;68989;52.032;5.152;2023-05-13T01:04:13;24;24;
79537;PMS5003;68989;52.032;5.152;2023-05-13T01:06:49;23;21;
79537;PMS5003;68989;52.032;5.152;2023-05-13T01:09:25;25;24;
79537;PMS5003;68989;52.032;5.152;2023-05-13T01:11:59;20;20;
79537;PMS5003;68989;52.032;5.152;2023-05-13T01:14:32;22;22;
79537;PMS5003;68989;52.032;5.152;2023-05-13T01:17:04;19;19;
79537;PMS5003;68989;52.032;5.152;2023-05-13T01:19:38;22;22;
79537;PMS5003;68989;52.032;5.152;2023-05-13T01:22:09;21;19;
79537;PMS5003;68989;52.032;5.152;2023-05-13T01:24:36;21;21;
79537;PMS5003;68989;52.032;5.152;2023-05-13T01:27:03;17;17;
79537;PMS5003;68989;52.032;5.152;2023-05-13T01:29:31;19;17;
79537;PMS5003;68989;52.032;5.152;2023-05-13T01:31:58;20;19;
79537;PMS5003;68989;52.032;5.152;2023-05-13T01:34:27;19;19;
79537;PMS5003;68989;52.032;5.152;2023-05-13T01:36:55;19;18;
79537;PMS5003;68989;52.032;5.152;2023-05-13T01:39:22;18;18;
79537;PMS5003;68989;52.032;5.152;2023-05-13T01:41:50;23;21;
79537;PMS5003;68989;52.032;5.152;2023-05-13T01:44:17;18;18;
79537;PMS5003;68989;52.032;5.152;2023-05-13T01:46:45;20;18;
79537;PMS5003;68989;52.032;5.152;2023-05-13T01:49:12;16;15;
79537;PMS5003;68989;52.032;5.152;2023-05-13T01:51:39;21;21;
79537;PMS5003;68989;52.032;5.152;2023-05-13T01:54:06;19;18;
79537;PMS5003;68989;52.032;5.152;2023-05-13T01:56:33;20;19;
79537;PMS5003;68989;52.032;5.152;2023-05-13T01:59:00;20;18;
79537;PMS5003;68989;52.032;5.152;2023-05-13T02:01:27;18;17;
79537;PMS5003;68989;52.032;5.152;2023-05-13T02:03:55;21;18;
79537;PMS5003;68989;52.032;5.152;2023-05-13T02:06:22;24;21;
79537;PMS5003;68989;52.032;5.152;2023-05-13T02:08:50;16;16;
79537;PMS5003;68989;52.032;5.152;2023-05-13T02:11:17;21;20;
79537;PMS5003;68989;52.032;5.152;2023-05-13T02:13:45;24;21;
79537;PMS5003;68989;52.032;5.152;2023-05-13T02:16:13;18;18;
79537;PMS5003;68989;52.032;5.152;2023-05-13T02:18:41;21;21;
79537;PMS5003;68989;52.032;5.152;2023-05-13T02:21:09;21;21;
79537;PMS5003;68989;52.032;5.152;2023-05-13T02:23:36;20;20;
79537;PMS5003;68989;52.032;5.152;2023-05-13T02:26:03;18;18;
79537;PMS5003;68989;52.032;5.152;2023-05-13T02:28:30;21;21;
79537;PMS5003;68989;52.032;5.152;2023-05-13T02:30:57;19;19;
79537;PMS5003;68989;52.032;5.152;2023-05-13T02:33:24;22;21;
79537;PMS5003;68989;52.032;5.152;2023-05-13T02:35:51;18;18;
79537;PMS5003;68989;52.032;5.152;2023-05-13T02:38:17;20;20;
79537;PMS5003;68989;52.032;5.152;2023-05-13T02:40:44;21;19;
79537;PMS5003;68989;52.032;5.152;2023-05-13T02:43:12;17;17;
79537;PMS5003;68989;52.032;5.152;2023-05-13T02:45:39;20;19;
79537;PMS5003;68989;52.032;5.152;2023-05-13T02:48:06;21;21;
79537;PMS5003;68989;52.032;5.152;2023-05-13T02:50:33;23;22;
79537;PMS5003;68989;52.032;5.152;2023-05-13T02:53:00;26;25;
79537;PMS5003;68989;52.032;5.152;2023-05-13T02:55:28;25;23;
79537;PMS5003;68989;52.032;5.152;2023-05-13T02:57:54;22;22;
79537;PMS5003;68989;52.032;5.152;2023-05-13T03:00:21;25;23;
79537;PMS5003;68989;52.032;5.152;2023-05-13T03:02:49;23;23;
79537;PMS5003;68989;52.032;5.152;2023-05-13T03:05:16;23;23;
79537;PMS5003;68989;52.032;5.152;2023-05-13T03:07:43;25;25;
79537;PMS5003;68989;52.032;5.152;2023-05-13T03:10:10;22;22;
79537;PMS5003;68989;52.032;5.152;2023-05-13T03:12:37;26;26;
79537;PMS5003;68989;52.032;5.152;2023-05-13T03:15:05;22;22;
79537;PMS5003;68989;52.032;5.152;2023-05-13T03:17:33;22;22;
79537;PMS5003;68989;52.032;5.152;2023-05-13T03:20:00;29;27;
79537;PMS5003;68989;52.032;5.152;2023-05-13T03:22:27;24;22;
79537;PMS5003;68989;52.032;5.152;2023-05-13T03:24:54;30;22;
79537;PMS5003;68989;52.032;5.152;2023-05-13T03:27:21;21;21;
79537;PMS5003;68989;52.032;5.152;2023-05-13T03:29:48;25;25;
79537;PMS5003;68989;52.032;5.152;2023-05-13T03:32:15;23;23;
79537;PMS5003;68989;52.032;5.152;2023-05-13T03:34:43;23;21;
79537;PMS5003;68989;52.032;5.152;2023-05-13T03:37:10;27;24;
79537;PMS5003;68989;52.032;5.152;2023-05-13T03:39:36;22;22;
79537;PMS5003;68989;52.032;5.152;2023-05-13T03:42:04;22;22;
79537;PMS5003;68989;52.032;5.152;2023-05-13T03:44:32;30;27;
79537;PMS5003;68989;52.032;5.152;2023-05-13T03:46:59;30;27;
79537;PMS5003;68989;52.032;5.152;2023-05-13T03:49:26;28;26;
79537;PMS5003;68989;52.032;5.152;2023-05-13T03:51:52;27;25;
79537;PMS5003;68989;52.032;5.152;2023-05-13T03:54:20;23;23;
79537;PMS5003;68989;52.032;5.152;2023-05-13T03:56:47;21;21;
79537;PMS5003;68989;52.032;5.152;2023-05-13T03:59:14;27;27;
79537;PMS5003;68989;52.032;5.152;2023-05-13T04:01:41;28;28;
79537;PMS5003;68989;52.032;5.152;2023-05-13T04:04:08;26;26;
79537;PMS5003;68989;52.032;5.152;2023-05-13T04:06:35;28;27;
79537;PMS5003;68989;52.032;5.152;2023-05-13T04:09:03;28;26;
79537;PMS5003;68989;52.032;5.152;2023-05-13T04:11:30;32;32;
79537;PMS5003;68989;52.032;5.152;2023-05-13T04:13:57;31;29;
79537;PMS5003;68989;52.032;5.152;2023-05-13T04:16:24;29;28;
79537;PMS5003;68989;52.032;5.152;2023-05-13T04:18:51;28;26;
79537;PMS5003;68989;52.032;5.152;2023-05-13T04:21:18;30;29;
79537;PMS5003;68989;52.032;5.152;2023-05-13T04:23:45;27;26;
79537;PMS5003;68989;52.032;5.152;2023-05-13T04:26:11;28;27;
79537;PMS5003;68989;52.032;5.152;2023-05-13T04:28:38;25;24;
79537;PMS5003;68989;52.032;5.152;2023-05-13T04:31:05;30;30;
79537;PMS5003;68989;52.032;5.152;2023-05-13T04:33:32;26;26;
79537;PMS5003;68989;52.032;5.152;2023-05-13T04:35:59;28;28;
79537;PMS5003;68989;52.032;5.152;2023-05-13T04:38:26;33;29;
79537;PMS5003;68989;52.032;5.152;2023-05-13T04:40:53;28;28;
79537;PMS5003;68989;52.032;5.152;2023-05-13T04:43:20;32;30;
79537;PMS5003;68989;52.032;5.152;2023-05-13T04:45:47;28;26;
79537;PMS5003;68989;52.032;5.152;2023-05-13T04:48:14;26;25;
79537;PMS5003;68989;52.032;5.152;2023-05-13T04:50:43;29;29;
79537;PMS5003;68989;52.032;5.152;2023-05-13T04:53:10;30;30;
79537;PMS5003;68989;52.032;5.152;2023-05-13T04:55:37;29;29;
79537;PMS5003;68989;52.032;5.152;2023-05-13T04:58:04;33;31;
79537;PMS5003;68989;52.032;5.152;2023-05-13T05:00:32;28;27;
79537;PMS5003;68989;52.032;5.152;2023-05-13T05:02:59;31;30;
79537;PMS5003;68989;52.032;5.152;2023-05-13T05:05:26;33;30;
79537;PMS5003;68989;52.032;5.152;2023-05-13T05:07:54;35;32;
79537;PMS5003;68989;52.032;5.152;2023-05-13T05:10:21;33;33;
79537;PMS5003;68989;52.032;5.152;2023-05-13T05:12:49;30;30;
79537;PMS5003;68989;52.032;5.152;2023-05-13T05:15:16;33;32;
79537;PMS5003;68989;52.032;5.152;2023-05-13T05:17:44;30;28;
79537;PMS5003;68989;52.032;5.152;2023-05-13T05:20:11;25;24;
79537;PMS5003;68989;52.032;5.152;2023-05-13T05:22:38;31;29;
79537;PMS5003;68989;52.032;5.152;2023-05-13T05:25:05;31;30;
79537;PMS5003;68989;52.032;5.152;2023-05-13T05:27:33;25;25;
79537;PMS5003;68989;52.032;5.152;2023-05-13T05:30:00;29;27;
79537;PMS5003;68989;52.032;5.152;2023-05-13T05:32:27;31;29;
79537;PMS5003;68989;52.032;5.152;2023-05-13T05:34:54;26;26;
79537;PMS5003;68989;52.032;5.152;2023-05-13T05:37:21;29;29;
79537;PMS5003;68989;52.032;5.152;2023-05-13T05:39:48;31;31;
79537;PMS5003;68989;52.032;5.152;2023-05-13T05:42:15;34;32;
79537;PMS5003;68989;52.032;5.152;2023-05-13T05:44:42;31;31;
79537;PMS5003;68989;52.032;5.152;2023-05-13T05:47:08;28;27;
79537;PMS5003;68989;52.032;5.152;2023-05-13T05:49:35;31;29;
79537;PMS5003;68989;52.032;5.152;2023-05-13T05:52:03;26;26;
79537;PMS5003;68989;52.032;5.152;2023-05-13T05:54:31;33;32;
79537;PMS5003;68989;52.032;5.152;2023-05-13T05:56:57;32;29;
79537;PMS5003;68989;52.032;5.152;2023-05-13T05:59:24;36;34;
79537;PMS5003;68989;52.032;5.152;2023-05-13T06:01:52;36;32;
79537;PMS5003;68989;52.032;5.152;2023-05-13T06:04:19;29;27;
79537;PMS5003;68989;52.032;5.152;2023-05-13T06:06:46;31;31;
79537;PMS5003;68989;52.032;5.152;2023-05-13T06:09:13;28;28;
79537;PMS5003;68989;52.032;5.152;2023-05-13T06:11:40;31;31;
79537;PMS5003;68989;52.032;5.152;2023-05-13T06:14:06;25;25;
79537;PMS5003;68989;52.032;5.152;2023-05-13T06:16:34;29;27;
79537;PMS5003;68989;52.032;5.152;2023-05-13T06:19:01;29;27;
79537;PMS5003;68989;52.032;5.152;2023-05-13T06:21:28;27;27;
79537;PMS5003;68989;52.032;5.152;2023-05-13T06:23:55;32;31;
79537;PMS5003;68989;52.032;5.152;2023-05-13T06:26:22;29;29;
79537;PMS5003;68989;52.032;5.152;2023-05-13T06:28:49;35;35;
79537;PMS5003;68989;52.032;5.152;2023-05-13T06:31:16;30;30;
79537;PMS5003;68989;52.032;5.152;2023-05-13T06:33:43;34;32;
79537;PMS5003;68989;52.032;5.152;2023-05-13T06:36:11;26;26;
79537;PMS5003;68989;52.032;5.152;2023-05-13T06:38:38;32;30;
79537;PMS5003;68989;52.032;5.152;2023-05-13T06:41:04;33;30;
79537;PMS5003;68989;52.032;5.152;2023-05-13T06:43:31;28;27;
79537;PMS5003;68989;52.032;5.152;2023-05-13T06:45:58;34;30;
79537;PMS5003;68989;52.032;5.152;2023-05-13T06:48:25;25;25;
79537;PMS5003;68989;52.032;5.152;2023-05-13T06:50:53;23;23;
79537;PMS5003;68989;52.032;5.152;2023-05-13T06:53:20;31;30;
79537;PMS5003;68989;52.032;5.152;2023-05-13T06:55:47;33;30;
79537;PMS5003;68989;52.032;5.152;2023-05-13T06:58:14;32;30;
79537;PMS5003;68989;52.032;5.152;2023-05-13T07:00:41;29;29;
79537;PMS5003;68989;52.032;5.152;2023-05-13T07:03:08;29;29;
79537;PMS5003;68989;52.032;5.152;2023-05-13T07:05:35;26;23;
79537;PMS5003;68989;52.032;5.152;2023-05-13T07:08:02;28;27;
79537;PMS5003;68989;52.032;5.152;2023-05-13T07:10:30;27;26;
79537;PMS5003;68989;52.032;5.152;2023-05-13T07:12:57;26;25;
79537;PMS5003;68989;52.032;5.152;2023-05-13T07:15:25;25;25;
79537;PMS5003;68989;52.032;5.152;2023-05-13T07:17:53;19;19;
79537;PMS5003;68989;52.032;5.152;2023-05-13T07:20:20;26;25;
79537;PMS5003;68989;52.032;5.152;2023-05-13T07:22:48;22;20;
79537;PMS5003;68989;52.032;5.152;2023-05-13T07:25:16;25;25;
79537;PMS5003;68989;52.032;5.152;2023-05-13T07:27:43;26;24;
79537;PMS5003;68989;52.032;5.152;2023-05-13T07:30:11;21;20;
79537;PMS5003;68989;52.032;5.152;2023-05-13T07:32:39;22;22;
79537;PMS5003;68989;52.032;5.152;2023-05-13T07:35:06;28;28;
79537;PMS5003;68989;52.032;5.152;2023-05-13T07:37:34;21;20;
79537;PMS5003;68989;52.032;5.152;2023-05-13T07:40:02;22;22;
79537;PMS5003;68989;52.032;5.152;2023-05-13T07:42:30;21;21;
79537;PMS5003;68989;52.032;5.152;2023-05-13T07:44:57;21;20;
79537;PMS5003;68989;52.032;5.152;2023-05-13T07:47:25;19;19;
79537;PMS5003;68989;52.032;5.152;2023-05-13T07:49:52;24;23;
79537;PMS5003;68989;52.032;5.152;2023-05-13T07:52:19;22;22;
79537;PMS5003;68989;52.032;5.152;2023-05-13T07:54:46;28;27;
79537;PMS5003;68989;52.032;5.152;2023-05-13T07:57:13;27;24;
79537;PMS5003;68989;52.032;5.152;2023-05-13T07:59:40;22;20;
79537;PMS5003;68989;52.032;5.152;2023-05-13T08:02:07;19;19;
79537;PMS5003;68989;52.032;5.152;2023-05-13T08:04:34;21;21;
79537;PMS5003;68989;52.032;5.152;2023-05-13T08:07:00;21;21;
79537;PMS5003;68989;52.032;5.152;2023-05-13T08:09:27;19;19;
79537;PMS5003;68989;52.032;5.152;2023-05-13T08:11:54;18;17;
79537;PMS5003;68989;52.032;5.152;2023-05-13T08:14:21;23;21;
79537;PMS5003;68989;52.032;5.152;2023-05-13T08:16:48;23;23;
79537;PMS5003;68989;52.032;5.152;2023-05-13T08:19:15;24;21;
79537;PMS5003;68989;52.032;5.152;2023-05-13T08:21:42;25;25;
79537;PMS5003;68989;52.032;5.152;2023-05-13T08:24:09;24;24;
79537;PMS5003;68989;52.032;5.152;2023-05-13T08:26:36;19;18;
79537;PMS5003;68989;52.032;5.152;2023-05-13T08:29:03;22;22;
79537;PMS5003;68989;52.032;5.152;2023-05-13T08:31:30;26;23;
79537;PMS5003;68989;52.032;5.152;2023-05-13T08:33:57;27;24;
79537;PMS5003;68989;52.032;5.152;2023-05-13T08:36:24;21;20;
79537;PMS5003;68989;52.032;5.152;2023-05-13T08:38:51;22;20;
79537;PMS5003;68989;52.032;5.152;2023-05-13T08:41:18;23;23;
79537;PMS5003;68989;52.032;5.152;2023-05-13T08:43:46;24;23;
79537;PMS5003;68989;52.032;5.152;2023-05-13T08:46:14;20;20;
79537;PMS5003;68989;52.032;5.152;2023-05-13T08:48:43;18;18;
79537;PMS5003;68989;52.032;5.152;2023-05-13T08:51:12;19;19;
79537;PMS5003;68989;52.032;5.152;2023-05-13T08:53:39;23;22;
79537;PMS5003;68989;52.032;5.152;2023-05-13T08:56:09;26;25;
79537;PMS5003;68989;52.032;5.152;2023-05-13T08:58:37;25;24;
79537;PMS5003;68989;52.032;5.152;2023-05-13T09:01:04;26;23;
79537;PMS5003;68989;52.032;5.152;2023-05-13T09:03:31;22;22;
79537;PMS5003;68989;52.032;5.152;2023-05-13T09:06:00;20;20;
79537;PMS5003;68989;52.032;5.152;2023-05-13T09:08:27;23;23;
79537;PMS5003;68989;52.032;5.152;2023-05-13T09:10:54;25;22;
79537;PMS5003;68989;52.032;5.152;2023-05-13T09:13:22;20;20;
79537;PMS5003;68989;52.032;5.152;2023-05-13T09:15:49;22;22;
79537;PMS5003;68989;52.032;5.152;2023-05-13T09:18:16;24;24;
79537;PMS5003;68989;52.032;5.152;2023-05-13T09:20:43;18;18;
79537;PMS5003;68989;52.032;5.152;2023-05-13T09:23:10;22;22;
79537;PMS5003;68989;52.032;5.152;2023-05-13T09:25:39;17;17;
79537;PMS5003;68989;52.032;5.152;2023-05-13T09:28:06;19;19;
79537;PMS5003;68989;52.032;5.152;2023-05-13T09:30:34;23;22;
79537;PMS5003;68989;52.032;5.152;2023-05-13T09:33:04;20;20;
79537;PMS5003;68989;52.032;5.152;2023-05-13T09:35:33;19;19;
79537;PMS5003;68989;52.032;5.152;2023-05-13T09:38:01;21;20;
79537;PMS5003;68989;52.032;5.152;2023-05-13T09:40:38;24;23;
79537;PMS5003;68989;52.032;5.152;2023-05-13T09:43:05;21;20;
79537;PMS5003;68989;52.032;5.152;2023-05-13T09:45:32;16;16;
79537;PMS5003;68989;52.032;5.152;2023-05-13T09:48:00;18;18;
79537;PMS5003;68989;52.032;5.152;2023-05-13T09:50:28;23;21;
79537;PMS5003;68989;52.032;5.152;2023-05-13T09:52:57;20;20;
79537;PMS5003;68989;52.032;5.152;2023-05-13T09:55:23;22;22;
79537;PMS5003;68989;52.032;5.152;2023-05-13T09:57:51;21;21;
79537;PMS5003;68989;52.032;5.152;2023-05-13T10:00:19;20;20;
79537;PMS5003;68989;52.032;5.152;2023-05-13T10:02:46;20;20;
79537;PMS5003;68989;52.032;5.152;2023-05-13T10:05:14;18;18;
79537;PMS5003;68989;52.032;5.152;2023-05-13T10:07:42;22;21;
79537;PMS5003;68989;52.032;5.152;2023-05-13T10:10:09;20;19;
79537;PMS5003;68989;52.032;5.152;2023-05-13T10:12:36;23;21;
79537;PMS5003;68989;52.032;5.152;2023-05-13T10:15:05;19;19;
79537;PMS5003;68989;52.032;5.152;2023-05-13T10:17:34;16;15;
79537;PMS5003;68989;52.032;5.152;2023-05-13T10:20:02;20;20;
79537;PMS5003;68989;52.032;5.152;2023-05-13T10:22:31;15;15;
79537;PMS5003;68989;52.032;5.152;2023-05-13T10:24:59;20;18;
79537;PMS5003;68989;52.032;5.152;2023-05-13T10:27:28;14;14;
79537;PMS5003;68989;52.032;5.152;2023-05-13T10:29:57;20;18;
79537;PMS5003;68989;52.032;5.152;2023-05-13T10:32:25;17;17;
79537;PMS5003;68989;52.032;5.152;2023-05-13T10:34:56;15;15;
79537;PMS5003;68989;52.032;5.152;2023-05-13T10:37:37;16;16;
79537;PMS5003;68989;52.032;5.152;2023-05-13T10:40:24;21;20;
79537;PMS5003;68989;52.032;5.152;2023-05-13T10:43:10;14;14;
79537;PMS5003;68989;52.032;5.152;2023-05-13T10:45:43;19;17;
79537;PMS5003;68989;52.032;5.152;2023-05-13T10:48:12;15;15;
79537;PMS5003;68989;52.032;5.152;2023-05-13T10:50:49;16;16;
79537;PMS5003;68989;52.032;5.152;2023-05-13T10:53:18;17;17;
79537;PMS5003;68989;52.032;5.152;2023-05-13T10:55:50;16;16;
79537;PMS5003;68989;52.032;5.152;2023-05-13T10:58:19;19;17;
79537;PMS5003;68989;52.032;5.152;2023-05-13T11:00:47;19;19;
79537;PMS5003;68989;52.032;5.152;2023-05-13T11:03:14;16;16;
79537;PMS5003;68989;52.032;5.152;2023-05-13T11:05:57;16;16;
79537;PMS5003;68989;52.032;5.152;2023-05-13T11:08:42;18;15;
79537;PMS5003;68989;52.032;5.152;2023-05-13T11:11:45;18;18;
79537;PMS5003;68989;52.032;5.152;2023-05-13T11:14:14;20;18;
79537;PMS5003;68989;52.032;5.152;2023-05-13T11:16:44;19;19;
79537;PMS5003;68989;52.032;5.152;2023-05-13T11:19:21;19;19;
79537;PMS5003;68989;52.032;5.152;2023-05-13T11:21:52;18;18;
79537;PMS5003;68989;52.032;5.152;2023-05-13T11:24:21;17;17;
79537;PMS5003;68989;52.032;5.152;2023-05-13T11:26:50;20;19;
79537;PMS5003;68989;52.032;5.152;2023-05-13T11:29:27;17;16;
79537;PMS5003;68989;52.032;5.152;2023-05-13T11:31:56;20;19;
79537;PMS5003;68989;52.032;5.152;2023-05-13T11:34:24;18;16;
79537;PMS5003;68989;52.032;5.152;2023-05-13T11:36:54;22;20;
79537;PMS5003;68989;52.032;5.152;2023-05-13T11:39:23;18;17;
79537;PMS5003;68989;52.032;5.152;2023-05-13T11:41:51;20;19;
79537;PMS5003;68989;52.032;5.152;2023-05-13T11:44:20;19;19;
79537;PMS5003;68989;52.032;5.152;2023-05-13T11:46:49;24;24;
79537;PMS5003;68989;52.032;5.152;2023-05-13T11:49:51;17;17;
79537;PMS5003;68989;52.032;5.152;2023-05-13T11:52:18;18;18;
79537;PMS5003;68989;52.032;5.152;2023-05-13T11:54:46;21;19;
79537;PMS5003;68989;52.032;5.152;2023-05-13T11:57:18;19;19;
79537;PMS5003;68989;52.032;5.152;2023-05-13T11:59:48;18;15;
79537;PMS5003;68989;52.032;5.152;2023-05-13T12:02:19;15;15;
79537;PMS5003;68989;52.032;5.152;2023-05-13T12:04:47;17;17;
79537;PMS5003;68989;52.032;5.152;2023-05-13T12:07:17;17;17;
79537;PMS5003;68989;52.032;5.152;2023-05-13T12:09:46;18;18;
79537;PMS5003;68989;52.032;5.152;2023-05-13T12:12:13;18;18;
79537;PMS5003;68989;52.032;5.152;2023-05-13T12:14:40;17;17;
79537;PMS5003;68989;52.032;5.152;2023-05-13T12:17:08;20;19;
79537;PMS5003;68989;52.032;5.152;2023-05-13T12:19:35;15;15;
79537;PMS5003;68989;52.032;5.152;2023-05-13T12:22:02;18;18;
79537;PMS5003;68989;52.032;5.152;2023-05-13T12:24:31;21;19;
79537;PMS5003;68989;52.032;5.152;2023-05-13T12:27:03;16;16;
79537;PMS5003;68989;52.032;5.152;2023-05-13T12:29:39;14;14;
79537;PMS5003;68989;52.032;5.152;2023-05-13T12:32:07;17;16;
79537;PMS5003;68989;52.032;5.152;2023-05-13T12:34:34;18;15;
79537;PMS5003;68989;52.032;5.152;2023-05-13T12:37:09;19;19;
79537;PMS5003;68989;52.032;5.152;2023-05-13T12:39:38;15;15;
79537;PMS5003;68989;52.032;5.152;2023-05-13T12:42:11;15;15;
79537;PMS5003;68989;52.032;5.152;2023-05-13T12:44:40;15;15;
79537;PMS5003;68989;52.032;5.152;2023-05-13T12:47:08;18;17;
79537;PMS5003;68989;52.032;5.152;2023-05-13T12:49:49;15;15;
79537;PMS5003;68989;52.032;5.152;2023-05-13T12:52:17;15;15;
79537;PMS5003;68989;52.032;5.152;2023-05-13T12:54:44;15;15;
79537;PMS5003;68989;52.032;5.152;2023-05-13T12:57:11;16;16;
79537;PMS5003;68989;52.032;5.152;2023-05-13T12:59:37;15;15;
79537;PMS5003;68989;52.032;5.152;2023-05-13T13:02:04;18;16;
79537;PMS5003;68989;52.032;5.152;2023-05-13T13:04:31;15;14;
79537;PMS5003;68989;52.032;5.152;2023-05-13T13:06:59;13;13;
79537;PMS5003;68989;52.032;5.152;2023-05-13T13:09:25;15;15;
79537;PMS5003;68989;52.032;5.152;2023-05-13T13:11:52;14;14;
79537;PMS5003;68989;52.032;5.152;2023-05-13T13:14:19;16;14;
79537;PMS5003;68989;52.032;5.152;2023-05-13T13:16:50;15;15;
79537;PMS5003;68989;52.032;5.152;2023-05-13T13:19:17;14;14;
79537;PMS5003;68989;52.032;5.152;2023-05-13T13:21:49;15;15;
79537;PMS5003;68989;52.032;5.152;2023-05-13T13:24:17;14;14;
79537;PMS5003;68989;52.032;5.152;2023-05-13T13:26:44;15;13;
79537;PMS5003;68989;52.032;5.152;2023-05-13T13:29:11;14;13;
79537;PMS5003;68989;52.032;5.152;2023-05-13T13:31:39;13;13;
79537;PMS5003;68989;52.032;5.152;2023-05-13T13:34:06;15;15;
79537;PMS5003;68989;52.032;5.152;2023-05-13T13:36:33;17;15;
79537;PMS5003;68989;52.032;5.152;2023-05-13T13:39:00;16;16;
79537;PMS5003;68989;52.032;5.152;2023-05-13T13:41:27;18;18;
79537;PMS5003;68989;52.032;5.152;2023-05-13T13:43:53;15;15;
79537;PMS5003;68989;52.032;5.152;2023-05-13T13:46:21;15;15;
79537;PMS5003;68989;52.032;5.152;2023-05-13T13:48:48;18;18;
79537;PMS5003;68989;52.032;5.152;2023-05-13T13:51:14;14;14;
79537;PMS5003;68989;52.032;5.152;2023-05-13T13:53:41;17;17;
79537;PMS5003;68989;52.032;5.152;2023-05-13T13:56:09;19;17;
79537;PMS5003;68989;52.032;5.152;2023-05-13T13:58:35;16;13;
79537;PMS5003;68989;52.032;5.152;2023-05-13T14:01:03;14;14;
79537;PMS5003;68989;52.032;5.152;2023-05-13T14:03:29;15;15;
79537;PMS5003;68989;52.032;5.152;2023-05-13T14:05:56;16;16;
79537;PMS5003;68989;52.032;5.152;2023-05-13T14:08:24;21;19;
79537;PMS5003;68989;52.032;5.152;2023-05-13T14:10:51;16;16;
79537;PMS5003;68989;52.032;5.152;2023-05-13T14:13:18;19;19;
79537;PMS5003;68989;52.032;5.152;2023-05-13T14:15:45;16;16;
79537;PMS5003;68989;52.032;5.152;2023-05-13T14:18:12;15;15;
79537;PMS5003;68989;52.032;5.152;2023-05-13T14:20:39;15;14;
79537;PMS5003;68989;52.032;5.152;2023-05-13T14:23:06;18;18;
79537;PMS5003;68989;52.032;5.152;2023-05-13T14:25:33;12;12;
79537;PMS5003;68989;52.032;5.152;2023-05-13T14:28:00;15;15;
79537;PMS5003;68989;52.032;5.152;2023-05-13T14:30:27;17;15;
79537;PMS5003;68989;52.032;5.152;2023-05-13T14:32:54;13;11;
79537;PMS5003;68989;52.032;5.152;2023-05-13T14:35:21;16;16;
79537;PMS5003;68989;52.032;5.152;2023-05-13T14:37:47;15;15;
79537;PMS5003;68989;52.032;5.152;2023-05-13T14:40:14;15;15;
79537;PMS5003;68989;52.032;5.152;2023-05-13T14:42:41;14;13;
79537;PMS5003;68989;52.032;5.152;2023-05-13T14:45:08;19;18;
79537;PMS5003;68989;52.032;5.152;2023-05-13T14:47:36;16;16;
79537;PMS5003;68989;52.032;5.152;2023-05-13T14:50:03;14;14;
79537;PMS5003;68989;52.032;5.152;2023-05-13T14:52:30;17;17;
79537;PMS5003;68989;52.032;5.152;2023-05-13T14:54:57;16;14;
79537;PMS5003;68989;52.032;5.152;2023-05-13T14:57:24;16;14;
79537;PMS5003;68989;52.032;5.152;2023-05-13T14:59:51;18;17;
79537;PMS5003;68989;52.032;5.152;2023-05-13T15:02:18;15;14;
79537;PMS5003;68989;52.032;5.152;2023-05-13T15:04:44;17;17;
79537;PMS5003;68989;52.032;5.152;2023-05-13T15:07:12;16;16;
79537;PMS5003;68989;52.032;5.152;2023-05-13T15:09:39;16;15;
79537;PMS5003;68989;52.032;5.152;2023-05-13T15:12:06;14;14;
79537;PMS5003;68989;52.032;5.152;2023-05-13T15:14:33;17;16;
79537;PMS5003;68989;52.032;5.152;2023-05-13T15:17:00;13;13;
79537;PMS5003;68989;52.032;5.152;2023-05-13T15:19:28;14;14;
79537;PMS5003;68989;52.032;5.152;2023-05-13T15:21:55;17;17;
79537;PMS5003;68989;52.032;5.152;2023-05-13T15:24:22;18;18;
79537;PMS5003;68989;52.032;5.152;2023-05-13T15:26:49;16;16;
79537;PMS5003;68989;52.032;5.152;2023-05-13T15:29:16;17;17;
79537;PMS5003;68989;52.032;5.152;2023-05-13T15:31:43;15;15;
79537;PMS5003;68989;52.032;5.152;2023-05-13T15:34:10;16;16;
79537;PMS5003;68989;52.032;5.152;2023-05-13T15:36:37;18;18;
79537;PMS5003;68989;52.032;5.152;2023-05-13T15:39:03;15;15;
79537;PMS5003;68989;52.032;5.152;2023-05-13T15:41:30;19;19;
79537;PMS5003;68989;52.032;5.152;2023-05-13T15:43:57;17;16;
79537;PMS5003;68989;52.032;5.152;2023-05-13T15:46:23;16;16;
79537;PMS5003;68989;52.032;5.152;2023-05-13T15:48:51;16;16;
79537;PMS5003;68989;52.032;5.152;2023-05-13T15:51:18;18;18;
79537;PMS5003;68989;52.032;5.152;2023-05-13T15:53:44;18;18;
79537;PMS5003;68989;52.032;5.152;2023-05-13T15:56:12;18;18;
79537;PMS5003;68989;52.032;5.152;2023-05-13T15:58:38;19;16;
79537;PMS5003;68989;52.032;5.152;2023-05-13T16:01:05;16;16;
79537;PMS5003;68989;52.032;5.152;2023-05-13T16:03:32;15;15;
79537;PMS5003;68989;52.032;5.152;2023-05-13T16:05:59;17;14;
79537;PMS5003;68989;52.032;5.152;2023-05-13T16:08:26;17;17;
79537;PMS5003;68989;52.032;5.152;2023-05-13T16:10:54;18;18;
79537;PMS5003;68989;52.032;5.152;2023-05-13T16:13:21;16;15;
79537;PMS5003;68989;52.032;5.152;2023-05-13T16:15:48;18;17;
79537;PMS5003;68989;52.032;5.152;2023-05-13T16:18:15;20;20;
79537;PMS5003;68989;52.032;5.152;2023-05-13T16:20:42;19;19;
79537;PMS5003;68989;52.032;5.152;2023-05-13T16:23:09;17;17;
79537;PMS5003;68989;52.032;5.152;2023-05-13T16:25:36;15;15;